Time;durP1;ratioP1;P1;durP2;ratioP2;P2;SDS_P1;SDS_P2;PMS_P1;PMS_P2;Temp;Humidity;BMP_temperature;BMP_pressure;BME280_temperature;BME280_humidity;BME280_pressure;Samples;Min_cycle;Max_cycle;Signal;HPM_P1;HPM_P2
2023/03/16 00:02:07;;;;;;;4.65;3.35;;;3.50;99.90;;;;;;5075400;28;20043;-34
2023/03/16 00:04:36;;;;;;;5.25;3.30;;;3.50;99.90;;;;;;5073026;28;20044;-34
2023/03/16 00:07:03;;;;;;;4.65;2.88;;;3.60;99.90;;;;;;5071896;28;20070;-34
2023/03/16 00:09:30;;;;;;;5.88;3.50;;;3.60;99.90;;;;;;5075789;28;20135;-34
2023/03/16 00:12:03;;;;;;;4.75;3.28;;;3.60;99.90;;;;;;5068261;28;20307;-34
2023/03/16 00:14:30;;;;;;;6.28;3.53;;;3.60;99.90;;;;;;5075001;28;20161;-34
2023/03/16 00:16:55;;;;;;;6.53;3.92;;;3.60;99.90;;;;;;5079663;28;20068;-34
2023/03/16 00:19:21;;;;;;;5.00;3.30;;;3.70;99.90;;;;;;5079900;28;20514;-34
2023/03/16 00:21:51;;;;;;;5.57;3.95;;;3.70;99.90;;;;;;5083518;28;20036;-34
2023/03/16 00:24:20;;;;;;;7.40;3.50;;;3.80;99.90;;;;;;5080787;28;20036;-34
2023/03/16 00:26:47;;;;;;;5.25;3.80;;;3.80;99.90;;;;;;5056652;28;20486;-34
2023/03/16 00:29:13;;;;;;;6.85;3.97;;;3.80;99.90;;;;;;5056224;28;20497;-34
2023/03/16 00:31:42;;;;;;;5.90;3.90;;;3.90;99.90;;;;;;5076853;28;20037;-35
2023/03/16 00:34:10;;;;;;;5.32;3.78;;;3.90;99.90;;;;;;5059290;28;20072;-35
2023/03/16 00:36:37;;;;;;;6.75;3.92;;;3.90;99.90;;;;;;5072894;28;20036;-34
2023/03/16 00:39:04;;;;;;;7.53;4.47;;;3.90;99.90;;;;;;5059112;28;20045;-34
2023/03/16 00:41:30;;;;;;;8.68;4.40;;;3.90;99.90;;;;;;5053357;28;20080;-34
2023/03/16 00:43:55;;;;;;;7.88;3.63;;;4.00;99.90;;;;;;5067470;28;20064;-34
2023/03/16 00:46:25;;;;;;;8.50;4.20;;;4.00;99.90;;;;;;5073357;28;20044;-35
2023/03/16 00:48:51;;;;;;;6.88;4.30;;;4.00;99.90;;;;;;5069827;28;20040;-34
2023/03/16 00:51:18;;;;;;;8.77;3.95;;;4.10;99.90;;;;;;5061194;28;20083;-35
2023/03/16 00:53:45;;;;;;;7.18;4.30;;;4.10;99.90;;;;;;5058595;28;20044;-34
2023/03/16 00:56:12;;;;;;;7.03;4.15;;;4.10;99.90;;;;;;5066739;28;20045;-34
2023/03/16 00:58:42;;;;;;;9.05;4.57;;;4.10;99.90;;;;;;5060340;28;20048;-34
2023/03/16 01:01:17;;;;;;;8.00;4.30;;;4.20;99.90;;;;;;5058660;28;20036;-34
2023/03/16 01:03:43;;;;;;;8.25;4.10;;;4.30;99.90;;;;;;5080668;28;20040;-34
2023/03/16 01:06:12;;;;;;;10.38;4.13;;;4.20;99.90;;;;;;5069154;28;20078;-35
2023/03/16 01:08:39;;;;;;;4.45;3.67;;;4.20;99.90;;;;;;5075669;28;20028;-34
2023/03/16 01:11:07;;;;;;;7.95;4.10;;;4.20;99.90;;;;;;5075929;28;20486;-34
2023/03/16 01:13:33;;;;;;;5.47;4.18;;;4.20;99.90;;;;;;5052524;28;20037;-34
2023/03/16 01:15:59;;;;;;;6.78;3.90;;;4.20;99.90;;;;;;5067626;28;20040;-34
2023/03/16 01:18:26;;;;;;;5.55;3.63;;;4.20;99.90;;;;;;5068948;28;20568;-35
2023/03/16 01:20:52;;;;;;;10.38;3.92;;;4.20;99.90;;;;;;5056538;28;20142;-34
2023/03/16 01:23:18;;;;;;;8.38;4.10;;;4.10;99.90;;;;;;5073846;28;20071;-34
2023/03/16 01:25:51;;;;;;;7.65;4.57;;;4.10;99.90;;;;;;5072449;28;20052;-34
2023/03/16 01:28:25;;;;;;;8.65;4.53;;;4.10;99.90;;;;;;5067760;28;20040;-34
2023/03/16 01:30:53;;;;;;;6.00;3.67;;;4.10;99.90;;;;;;5072330;28;20036;-34
2023/03/16 01:33:22;;;;;;;6.93;4.00;;;4.10;99.90;;;;;;5076302;28;20115;-35
2023/03/16 01:35:56;;;;;;;5.88;3.53;;;4.00;99.90;;;;;;5068782;28;20036;-34
2023/03/16 01:38:22;;;;;;;7.63;4.20;;;4.00;99.90;;;;;;5060895;28;20516;-34
2023/03/16 01:40:50;;;;;;;6.97;4.10;;;3.90;99.90;;;;;;5072076;28;20080;-34
2023/03/16 01:43:18;;;;;;;6.68;3.92;;;4.00;99.90;;;;;;5059933;28;20307;-34
2023/03/16 01:46:04;;;;;;;5.22;3.90;;;3.90;99.90;;;;;;5067162;28;20397;-34
2023/03/16 01:48:36;;;;;;;8.00;3.83;;;3.90;99.90;;;;;;5065307;28;20040;-34
2023/03/16 01:51:43;;;;;;;7.57;4.57;;;3.90;99.90;;;;;;5043586;28;20049;-35
2023/03/16 01:54:34;;;;;;;4.85;3.60;;;3.90;99.90;;;;;;5043604;28;20517;-34
2023/03/16 01:57:14;;;;;;;8.23;3.67;;;3.80;99.90;;;;;;5076940;28;20113;-34
2023/03/16 01:59:56;;;;;;;6.05;3.97;;;3.80;99.90;;;;;;5076465;28;20426;-34
2023/03/16 02:02:25;;;;;;;7.78;3.88;;;3.90;99.90;;;;;;5066552;28;20158;-34
2023/03/16 02:04:57;;;;;;;7.35;3.80;;;3.90;99.90;;;;;;5071878;28;20458;-34
2023/03/16 02:07:26;;;;;;;6.25;4.00;;;3.90;99.90;;;;;;5079840;28;20043;-34
2023/03/16 02:09:56;;;;;;;5.88;4.10;;;3.90;99.90;;;;;;5078018;28;20043;-34
2023/03/16 02:12:21;;;;;;;7.90;4.47;;;3.90;99.90;;;;;;5064859;28;20036;-34
2023/03/16 02:14:49;;;;;;;9.27;4.43;;;3.90;99.90;;;;;;5079545;28;20541;-34
2023/03/16 02:17:36;;;;;;;4.25;3.85;;;3.90;99.90;;;;;;5070047;28;20170;-34
2023/03/16 02:20:23;;;;;;;6.68;3.83;;;3.90;99.90;;;;;;5066927;28;20052;-34
2023/03/16 02:22:53;;;;;;;7.20;4.43;;;3.90;99.90;;;;;;5055124;28;20102;-34
2023/03/16 02:25:23;;;;;;;5.00;4.15;;;3.90;99.90;;;;;;5072615;28;20474;-34
2023/03/16 02:28:04;;;;;;;7.65;3.92;;;3.90;99.90;;;;;;5061099;28;20386;-33
2023/03/16 02:30:30;;;;;;;6.45;4.20;;;3.90;99.90;;;;;;5066530;28;20041;-35
2023/03/16 02:32:56;;;;;;;6.57;4.32;;;3.90;99.90;;;;;;5070928;28;20036;-34
2023/03/16 02:35:22;;;;;;;5.28;4.00;;;3.90;99.90;;;;;;5067281;28;20040;-34
2023/03/16 02:37:48;;;;;;;5.65;3.75;;;3.90;99.90;;;;;;5051107;28;20124;-34
2023/03/16 02:40:28;;;;;;;5.18;3.85;;;3.90;99.90;;;;;;5065383;28;20040;-34
2023/03/16 02:43:08;;;;;;;5.35;4.13;;;4.00;99.90;;;;;;5062060;28;20041;-34
2023/03/16 02:45:46;;;;;;;5.82;3.92;;;4.00;99.90;;;;;;5060085;28;20421;-34
2023/03/16 02:48:18;;;;;;;6.47;4.18;;;4.00;99.90;;;;;;5061596;28;20041;-33
2023/03/16 02:50:47;;;;;;;6.63;3.95;;;4.00;99.90;;;;;;5071393;28;20124;-34
2023/03/16 02:53:14;;;;;;;7.05;4.00;;;4.10;99.90;;;;;;5062222;28;20043;-34
2023/03/16 02:55:39;;;;;;;5.80;3.85;;;4.10;99.90;;;;;;5053173;28;20491;-34
2023/03/16 02:58:05;;;;;;;5.35;3.53;;;4.10;99.90;;;;;;5072062;28;20120;-34
2023/03/16 03:00:31;;;;;;;8.55;4.35;;;4.10;99.90;;;;;;5077057;28;20036;-35
2023/03/16 03:02:57;;;;;;;6.47;3.65;;;4.10;99.90;;;;;;5066157;28;20036;-34
2023/03/16 03:05:23;;;;;;;8.10;3.97;;;4.10;99.90;;;;;;5050835;28;20547;-34
2023/03/16 03:07:48;;;;;;;5.10;4.07;;;4.10;99.90;;;;;;5067587;28;20498;-34
2023/03/16 03:10:14;;;;;;;4.72;3.40;;;4.10;99.90;;;;;;5055096;28;20033;-34
2023/03/16 03:12:41;;;;;;;5.53;3.85;;;4.20;99.90;;;;;;5064438;28;20033;-34
2023/03/16 03:15:07;;;;;;;6.78;3.75;;;4.20;99.90;;;;;;5057956;28;20482;-34
2023/03/16 03:17:33;;;;;;;7.10;4.05;;;4.20;99.90;;;;;;5069474;28;20051;-34
2023/03/16 03:20:01;;;;;;;7.90;4.28;;;4.20;99.90;;;;;;5053812;28;20083;-34
2023/03/16 03:22:27;;;;;;;4.22;3.55;;;4.20;99.90;;;;;;5069270;28;20102;-33
2023/03/16 03:24:53;;;;;;;7.32;3.97;;;4.20;99.90;;;;;;5052840;28;20048;-34
2023/03/16 03:27:21;;;;;;;5.13;3.70;;;4.20;99.90;;;;;;5062478;28;20075;-35
2023/03/16 03:29:47;;;;;;;6.75;4.28;;;4.20;99.90;;;;;;5048206;28;20044;-34
2023/03/16 03:32:13;;;;;;;8.00;4.18;;;4.20;99.90;;;;;;5070415;28;20040;-34
2023/03/16 03:34:38;;;;;;;6.28;4.13;;;4.20;99.90;;;;;;5075234;28;20043;-34
2023/03/16 03:37:04;;;;;;;5.40;3.92;;;4.30;99.90;;;;;;5065523;28;20115;-34
2023/03/16 03:39:30;;;;;;;6.57;3.95;;;4.30;99.90;;;;;;5070955;28;20493;-34
2023/03/16 03:41:55;;;;;;;5.13;3.97;;;4.30;99.90;;;;;;5074080;28;20570;-34
2023/03/16 03:44:22;;;;;;;6.93;4.13;;;4.30;99.90;;;;;;5066752;28;20059;-33
2023/03/16 03:46:48;;;;;;;6.97;3.83;;;4.30;99.90;;;;;;5066914;28;20086;-35
2023/03/16 03:49:14;;;;;;;6.35;4.32;;;4.30;99.90;;;;;;5072182;28;20041;-34
2023/03/16 03:51:40;;;;;;;6.78;4.22;;;4.30;99.90;;;;;;5056695;28;20111;-34
2023/03/16 03:54:09;;;;;;;5.18;3.92;;;4.30;99.90;;;;;;5063939;28;20044;-35
2023/03/16 03:56:35;;;;;;;4.65;4.15;;;4.30;99.90;;;;;;5050488;28;20032;-34
2023/03/16 03:59:01;;;;;;;9.05;4.38;;;4.30;99.90;;;;;;5050307;28;20044;-34
2023/03/16 04:01:27;;;;;;;6.00;4.22;;;4.40;99.90;;;;;;5067543;28;20432;-35
2023/03/16 04:03:53;;;;;;;6.78;3.97;;;4.30;99.90;;;;;;5069854;28;20036;-34
2023/03/16 04:06:18;;;;;;;6.88;4.07;;;4.30;99.90;;;;;;5052564;28;20087;-35
2023/03/16 04:08:44;;;;;;;5.75;4.22;;;4.40;99.90;;;;;;5058856;28;20079;-34
2023/03/16 04:11:10;;;;;;;5.47;4.45;;;4.30;99.90;;;;;;5050043;28;20068;-34
2023/03/16 04:13:36;;;;;;;6.20;3.30;;;4.40;99.90;;;;;;5050036;28;20065;-33
2023/03/16 04:16:02;;;;;;;6.70;4.05;;;4.40;99.90;;;;;;5063288;28;20437;-33
2023/03/16 04:18:29;;;;;;;4.60;4.18;;;4.40;99.90;;;;;;5076495;28;20633;-34
2023/03/16 04:20:54;;;;;;;6.25;3.92;;;4.40;99.90;;;;;;5058199;28;20049;-34
2023/03/16 04:23:21;;;;;;;6.68;3.95;;;4.40;99.90;;;;;;5075953;28;20044;-34
2023/03/16 04:25:47;;;;;;;5.03;3.95;;;4.30;99.90;;;;;;5063548;28;20433;-34
2023/03/16 04:28:16;;;;;;;6.57;3.95;;;4.40;99.90;;;;;;5069939;28;20041;-34
2023/03/16 04:30:42;;;;;;;5.38;4.03;;;4.30;99.90;;;;;;5085581;28;20044;-34
2023/03/16 04:33:08;;;;;;;6.97;4.43;;;4.30;99.90;;;;;;5079027;28;20089;-34
2023/03/16 04:35:33;;;;;;;6.38;4.28;;;4.30;99.90;;;;;;5077747;28;20036;-34
2023/03/16 04:38:01;;;;;;;6.70;4.03;;;4.30;99.90;;;;;;5068525;28;20563;-34
2023/03/16 04:40:27;;;;;;;4.53;4.00;;;4.30;99.90;;;;;;5071824;28;20228;-35
2023/03/16 04:42:52;;;;;;;7.43;4.32;;;4.30;99.90;;;;;;5073521;28;20040;-34
2023/03/16 04:45:18;;;;;;;9.77;4.53;;;4.30;99.90;;;;;;5073461;28;20078;-34
2023/03/16 04:47:44;;;;;;;6.00;4.55;;;4.30;99.90;;;;;;5079040;28;20410;-34
2023/03/16 04:50:11;;;;;;;6.13;4.28;;;4.30;99.90;;;;;;5060232;28;20037;-34
2023/03/16 04:52:37;;;;;;;6.60;4.03;;;4.30;99.90;;;;;;5067116;28;20609;-34
2023/03/16 04:55:03;;;;;;;4.25;3.47;;;4.30;99.90;;;;;;5065423;28;20072;-34
2023/03/16 04:57:29;;;;;;;6.85;4.25;;;4.40;99.90;;;;;;5073456;28;20048;-34
2023/03/16 04:59:55;;;;;;;7.47;4.25;;;4.40;99.90;;;;;;5075040;28;20032;-35
2023/03/16 05:02:21;;;;;;;8.25;4.10;;;4.40;99.90;;;;;;5070967;28;20100;-34
2023/03/16 05:04:47;;;;;;;7.05;4.05;;;4.40;99.90;;;;;;5052700;28;20037;-34
2023/03/16 05:07:13;;;;;;;4.95;4.00;;;4.40;99.90;;;;;;5066889;28;20430;-34
2023/03/16 05:09:39;;;;;;;5.18;3.80;;;4.40;99.90;;;;;;5062441;28;20145;-34
2023/03/16 05:12:05;;;;;;;7.35;4.00;;;4.40;99.90;;;;;;5089015;28;20040;-34
2023/03/16 05:14:30;;;;;;;7.95;3.95;;;4.40;99.90;;;;;;5066729;28;20110;-34
2023/03/16 05:16:56;;;;;;;5.82;4.22;;;4.40;99.90;;;;;;5070460;28;20123;-34
2023/03/16 05:19:22;;;;;;;5.03;4.07;;;4.40;99.90;;;;;;5061955;28;20376;-34
2023/03/16 05:21:48;;;;;;;6.47;4.00;;;4.40;99.90;;;;;;5060292;28;20305;-35
2023/03/16 05:24:13;;;;;;;4.88;4.20;;;4.40;99.90;;;;;;5060336;28;20040;-35
2023/03/16 05:26:39;;;;;;;6.22;4.30;;;4.40;99.90;;;;;;5056001;28;20091;-34
2023/03/16 05:29:05;;;;;;;6.50;4.30;;;4.40;99.90;;;;;;5068958;28;20043;-35
2023/03/16 05:31:32;;;;;;;6.03;3.92;;;4.40;99.90;;;;;;5062942;28;20558;-34
2023/03/16 05:33:58;;;;;;;7.10;3.80;;;4.40;99.90;;;;;;5064126;28;20028;-34
2023/03/16 05:36:23;;;;;;;7.10;4.32;;;4.40;99.90;;;;;;5068652;28;20039;-35
2023/03/16 05:38:50;;;;;;;7.65;4.22;;;4.40;99.90;;;;;;5072778;28;20039;-34
2023/03/16 05:41:17;;;;;;;7.50;4.68;;;4.40;99.90;;;;;;5068026;28;20466;-34
2023/03/16 05:43:43;;;;;;;7.75;4.53;;;4.40;99.90;;;;;;5071506;28;20495;-33
2023/03/16 05:46:09;;;;;;;4.30;3.90;;;4.40;99.90;;;;;;5056475;28;20145;-35
2023/03/16 05:48:36;;;;;;;6.10;4.43;;;4.40;99.90;;;;;;5042916;28;20052;-34
2023/03/16 05:51:04;;;;;;;4.13;3.70;;;4.40;99.90;;;;;;5069767;28;20045;-34
2023/03/16 05:53:34;;;;;;;5.82;4.13;;;4.40;99.90;;;;;;5058526;28;20486;-34
2023/03/16 05:56:00;;;;;;;5.40;4.32;;;4.40;99.90;;;;;;5064538;28;20033;-35
2023/03/16 05:58:27;;;;;;;8.25;4.32;;;4.40;99.90;;;;;;5064009;28;20036;-34
2023/03/16 06:00:54;;;;;;;5.13;4.13;;;4.50;99.90;;;;;;5064032;28;20036;-35
2023/03/16 06:03:21;;;;;;;6.72;4.10;;;4.50;99.90;;;;;;5060994;28;20085;-35
2023/03/16 06:05:47;;;;;;;5.80;3.65;;;4.50;99.90;;;;;;5056698;28;20048;-33
2023/03/16 06:08:14;;;;;;;5.32;3.58;;;4.60;99.90;;;;;;5061290;28;20037;-34
2023/03/16 06:10:40;;;;;;;5.10;4.22;;;4.50;99.90;;;;;;5067191;28;20036;-34
2023/03/16 06:13:06;;;;;;;5.93;3.85;;;4.60;99.90;;;;;;5073112;28;20379;-33
2023/03/16 06:15:31;;;;;;;5.85;4.18;;;4.60;99.90;;;;;;5056088;28;20037;-34
2023/03/16 06:17:57;;;;;;;5.85;3.80;;;4.60;99.90;;;;;;5066919;28;20051;-35
2023/03/16 06:20:23;;;;;;;5.00;4.18;;;4.60;99.90;;;;;;5061120;28;20032;-34
2023/03/16 06:22:49;;;;;;;6.97;4.32;;;4.60;99.90;;;;;;5060616;28;20494;-35
2023/03/16 06:25:15;;;;;;;4.53;4.05;;;4.60;99.90;;;;;;5062424;28;20048;-34
2023/03/16 06:27:42;;;;;;;7.60;4.13;;;4.60;99.90;;;;;;5062579;28;20051;-34
2023/03/16 06:30:10;;;;;;;7.05;4.15;;;4.60;99.90;;;;;;5058588;28;20044;-33
2023/03/16 06:32:37;;;;;;;5.53;4.03;;;4.60;99.90;;;;;;5058452;28;20036;-34
2023/03/16 06:35:04;;;;;;;9.25;4.45;;;4.60;99.90;;;;;;5074384;28;20114;-34
2023/03/16 06:37:30;;;;;;;4.70;3.80;;;4.70;99.90;;;;;;5050006;28;20066;-34
2023/03/16 06:39:56;;;;;;;5.95;3.67;;;4.70;99.90;;;;;;5055605;28;20624;-34
2023/03/16 06:42:22;;;;;;;4.60;3.72;;;4.70;99.90;;;;;;5062930;28;20036;-34
2023/03/16 06:44:48;;;;;;;4.82;4.25;;;4.70;99.90;;;;;;5048332;28;20123;-33
2023/03/16 06:47:14;;;;;;;6.93;4.22;;;4.70;99.90;;;;;;5053050;28;20128;-33
2023/03/16 06:49:40;;;;;;;6.53;4.13;;;4.80;99.90;;;;;;5056501;28;20033;-34
2023/03/16 06:52:05;;;;;;;9.68;4.20;;;4.80;99.90;;;;;;5067270;28;20049;-35
2023/03/16 06:54:33;;;;;;;8.15;4.10;;;4.80;99.90;;;;;;5065380;28;20520;-34
2023/03/16 06:57:00;;;;;;;4.55;3.72;;;4.80;99.90;;;;;;5056343;28;20102;-35
2023/03/16 06:59:26;;;;;;;5.20;3.95;;;4.90;99.90;;;;;;5053918;28;20124;-35
2023/03/16 07:01:51;;;;;;;5.72;3.70;;;4.90;99.90;;;;;;5061295;28;20133;-34
2023/03/16 07:04:17;;;;;;;11.18;4.45;;;5.00;99.90;;;;;;5056907;28;20101;-34
2023/03/16 07:06:43;;;;;;;5.32;3.58;;;5.00;99.90;;;;;;5070625;28;20489;-34
2023/03/16 07:09:09;;;;;;;8.05;5.20;;;5.00;99.90;;;;;;5056708;28;20046;-34
2023/03/16 07:11:34;;;;;;;8.23;5.30;;;5.00;99.90;;;;;;5062749;28;20087;-34
2023/03/16 07:14:00;;;;;;;6.68;4.43;;;5.00;99.90;;;;;;5054804;28;20402;-34
2023/03/16 07:16:26;;;;;;;5.95;3.92;;;5.00;99.90;;;;;;5070708;28;20108;-34
2023/03/16 07:18:52;;;;;;;6.57;4.78;;;5.10;99.90;;;;;;5061431;28;20043;-34
2023/03/16 07:21:19;;;;;;;5.40;3.85;;;5.10;99.90;;;;;;5069506;28;20048;-34
2023/03/16 07:23:46;;;;;;;7.43;4.45;;;5.10;99.90;;;;;;5052060;28;20044;-34
2023/03/16 07:26:12;;;;;;;6.05;4.38;;;5.10;99.90;;;;;;5063521;28;20044;-34
2023/03/16 07:28:38;;;;;;;4.53;3.60;;;5.20;99.90;;;;;;5069781;28;20094;-34
2023/03/16 07:31:05;;;;;;;5.13;4.22;;;5.20;99.90;;;;;;5061950;28;20115;-34
2023/03/16 07:33:34;;;;;;;5.22;3.92;;;5.20;99.90;;;;;;5070316;28;20032;-34
2023/03/16 07:36:03;;;;;;;6.82;4.10;;;5.20;99.90;;;;;;5062126;28;20037;-34
2023/03/16 07:38:29;;;;;;;5.30;4.00;;;5.20;99.90;;;;;;5068774;28;20521;-34
2023/03/16 07:40:55;;;;;;;6.85;4.43;;;5.20;99.90;;;;;;5063878;28;20129;-34
2023/03/16 07:43:20;;;;;;;5.53;4.13;;;5.20;99.90;;;;;;5080872;28;20469;-34
2023/03/16 07:45:50;;;;;;;10.02;4.35;;;5.30;99.90;;;;;;5072517;28;20036;-35
2023/03/16 07:48:17;;;;;;;5.93;4.30;;;5.30;99.90;;;;;;5072015;28;20044;-34
2023/03/16 07:50:45;;;;;;;5.35;4.35;;;5.40;99.90;;;;;;5050989;28;20041;-34
2023/03/16 07:53:11;;;;;;;4.43;3.95;;;5.40;99.90;;;;;;5066814;28;20112;-34
2023/03/16 07:55:37;;;;;;;6.55;4.60;;;5.40;99.90;;;;;;5063849;28;20458;-34
2023/03/16 07:58:05;;;;;;;5.22;4.57;;;5.50;99.90;;;;;;5066500;28;20037;-34
2023/03/16 08:00:31;;;;;;;4.90;4.07;;;5.50;99.90;;;;;;5055187;28;20068;-34
2023/03/16 08:02:57;;;;;;;5.53;4.43;;;5.50;99.90;;;;;;5070255;28;20037;-34
2023/03/16 08:05:23;;;;;;;4.15;3.50;;;5.60;99.90;;;;;;5063939;28;20129;-34
2023/03/16 08:07:50;;;;;;;10.63;4.55;;;5.60;99.90;;;;;;5075793;28;20519;-34
2023/03/16 08:10:16;;;;;;;4.07;3.67;;;5.60;99.90;;;;;;5055941;28;20041;-34
2023/03/16 08:12:42;;;;;;;7.60;4.40;;;5.70;99.90;;;;;;5070570;28;20557;-35
2023/03/16 08:15:09;;;;;;;8.60;5.38;;;5.70;99.90;;;;;;5081974;28;20127;-35
2023/03/16 08:17:35;;;;;;;6.85;4.30;;;5.70;99.90;;;;;;5060894;28;20033;-33
2023/03/16 08:20:11;;;;;;;5.20;4.70;;;5.70;99.90;;;;;;5063128;28;20032;-34
2023/03/16 08:22:37;;;;;;;5.30;3.88;;;5.70;99.90;;;;;;5073888;28;20041;-34
2023/03/16 08:25:06;;;;;;;6.93;4.82;;;5.70;99.90;;;;;;5068125;28;20620;-34
2023/03/16 08:27:32;;;;;;;8.32;4.72;;;5.70;99.90;;;;;;5070419;28;20035;-34
2023/03/16 08:30:03;;;;;;;6.20;5.60;;;5.70;99.90;;;;;;5076001;28;20067;-34
2023/03/16 08:32:29;;;;;;;8.38;4.80;;;5.70;99.90;;;;;;5062102;28;20047;-35
2023/03/16 08:34:56;;;;;;;6.47;4.82;;;5.70;99.90;;;;;;5059067;28;20044;-35
2023/03/16 08:37:22;;;;;;;6.07;4.50;;;5.70;99.90;;;;;;5066616;28;20064;-34
2023/03/16 08:39:50;;;;;;;7.38;5.60;;;5.70;99.90;;;;;;5066301;28;20047;-34
2023/03/16 08:42:18;;;;;;;6.25;5.65;;;5.60;99.90;;;;;;5072446;28;20044;-34
2023/03/16 08:44:44;;;;;;;7.72;6.88;;;5.70;99.90;;;;;;5071740;28;20042;-35
2023/03/16 08:47:10;;;;;;;8.63;7.38;;;5.60;99.90;;;;;;5084747;28;20557;-34
2023/03/16 08:49:37;;;;;;;7.63;5.97;;;5.60;99.90;;;;;;5045743;28;20064;-34
2023/03/16 08:52:04;;;;;;;8.02;5.63;;;5.60;99.90;;;;;;5067320;28;20045;-34
2023/03/16 08:54:31;;;;;;;7.75;4.93;;;5.60;99.90;;;;;;5068805;28;20032;-33
2023/03/16 08:56:57;;;;;;;6.75;5.53;;;5.60;99.90;;;;;;5072075;28;20446;-34
2023/03/16 08:59:23;;;;;;;8.88;6.60;;;5.60;99.90;;;;;;5055754;28;20116;-34
2023/03/16 09:01:49;;;;;;;8.57;5.28;;;5.60;99.90;;;;;;5064978;28;20493;-34
2023/03/16 09:04:14;;;;;;;7.88;5.60;;;5.60;99.90;;;;;;5071967;28;20040;-34
2023/03/16 09:06:40;;;;;;;7.05;4.82;;;5.70;99.90;;;;;;5053045;28;20032;-34
2023/03/16 09:09:08;;;;;;;11.13;6.20;;;5.70;99.90;;;;;;5052401;28;20076;-33
2023/03/16 09:11:34;;;;;;;7.93;5.90;;;5.70;99.90;;;;;;5063196;28;20032;-34
2023/03/16 09:14:01;;;;;;;7.15;5.28;;;5.70;99.90;;;;;;5063971;28;20195;-34
2023/03/16 09:16:27;;;;;;;7.38;6.18;;;5.70;99.90;;;;;;5068577;28;20501;-34
2023/03/16 09:18:54;;;;;;;10.65;6.75;;;5.70;99.90;;;;;;5087380;28;20150;-35
2023/03/16 09:21:20;;;;;;;10.23;5.35;;;5.80;99.90;;;;;;5055158;28;20037;-34
2023/03/16 09:23:46;;;;;;;6.70;5.20;;;5.80;99.90;;;;;;5060706;28;20047;-34
2023/03/16 09:26:12;;;;;;;6.25;5.43;;;5.80;99.90;;;;;;5060115;28;20033;-34
2023/03/16 09:28:40;;;;;;;6.97;5.68;;;5.80;99.90;;;;;;5071575;28;20044;-35
2023/03/16 09:31:16;;;;;;;7.53;5.22;;;5.90;99.90;;;;;;5061203;28;20048;-34
2023/03/16 09:33:41;;;;;;;10.07;5.65;;;5.90;99.90;;;;;;5066351;28;20067;-34
2023/03/16 09:36:10;;;;;;;8.55;5.70;;;5.90;99.90;;;;;;5063487;28;20064;-33
2023/03/16 09:38:40;;;;;;;7.30;5.60;;;5.90;99.90;;;;;;5064970;28;20123;-34
2023/03/16 09:41:13;;;;;;;8.38;5.75;;;5.90;99.90;;;;;;5066528;28;20041;-34
2023/03/16 09:43:56;;;;;;;9.70;5.78;;;6.00;99.90;;;;;;5068864;28;20494;-34
2023/03/16 09:46:37;;;;;;;9.68;5.97;;;6.00;99.90;;;;;;5072418;28;20481;-35
2023/03/16 09:49:03;;;;;;;8.45;5.85;;;6.10;99.90;;;;;;5055607;28;20036;-35
2023/03/16 09:51:43;;;;;;;9.00;5.90;;;6.20;99.90;;;;;;5055282;28;20033;-34
2023/03/16 09:54:20;;;;;;;8.30;5.90;;;6.20;99.90;;;;;;5079006;28;20536;-35
2023/03/16 09:56:51;;;;;;;10.43;5.60;;;6.20;99.90;;;;;;5071071;28;20056;-34
2023/03/16 09:59:17;;;;;;;7.55;5.57;;;6.20;99.90;;;;;;5059189;28;20528;-34
2023/03/16 10:01:47;;;;;;;8.32;5.60;;;6.20;99.90;;;;;;5061091;28;20471;-35
2023/03/16 10:04:15;;;;;;;9.55;5.82;;;6.30;99.90;;;;;;5069922;28;20071;-34
2023/03/16 10:07:04;;;;;;;6.63;5.50;;;6.30;99.90;;;;;;5067807;28;20033;-35
2023/03/16 10:09:58;;;;;;;7.63;5.53;;;6.30;99.90;;;;;;5071953;28;20059;-35
2023/03/16 10:12:34;;;;;;;6.75;5.60;;;6.30;99.90;;;;;;5063504;28;20044;-34
2023/03/16 10:15:10;;;;;;;9.45;6.22;;;6.30;99.90;;;;;;5071883;28;20043;-33
2023/03/16 10:17:48;;;;;;;9.43;6.88;;;6.30;99.90;;;;;;5069737;28;20474;-34
2023/03/16 10:20:19;;;;;;;12.07;7.28;;;6.30;99.90;;;;;;5059416;28;20040;-34
2023/03/16 10:22:48;;;;;;;12.35;7.20;;;6.30;99.90;;;;;;5059667;28;20041;-34
2023/03/16 10:25:41;;;;;;;7.65;6.03;;;6.40;99.90;;;;;;5065865;28;20095;-35
2023/03/16 10:28:21;;;;;;;10.63;5.93;;;6.50;99.90;;;;;;5053622;28;20421;-34
2023/03/16 10:30:49;;;;;;;12.35;6.28;;;6.50;99.90;;;;;;5052587;28;20040;-34
2023/03/16 10:33:28;;;;;;;10.63;6.38;;;6.50;99.90;;;;;;5058019;28;20130;-35
2023/03/16 10:35:56;;;;;;;5.70;4.93;;;6.60;99.90;;;;;;5063207;28;20028;-34
2023/03/16 10:38:45;;;;;;;6.38;5.45;;;6.60;99.90;;;;;;5052100;28;20325;-34
2023/03/16 10:41:21;;;;;;;5.82;4.82;;;6.70;99.90;;;;;;5070637;28;20041;-34
2023/03/16 10:43:56;;;;;;;7.65;4.50;;;6.70;99.90;;;;;;5068273;28;20224;-34
2023/03/16 10:46:26;;;;;;;8.55;4.60;;;6.80;99.90;;;;;;5072124;28;20273;-34
2023/03/16 10:49:00;;;;;;;6.80;5.13;;;6.80;99.90;;;;;;5070555;28;20033;-35
2023/03/16 10:51:32;;;;;;;8.60;5.25;;;6.80;99.90;;;;;;5062974;28;20119;-35
2023/03/16 10:54:15;;;;;;;8.55;5.38;;;6.90;99.90;;;;;;5056547;28;20040;-35
2023/03/16 10:56:40;;;;;;;10.13;5.85;;;6.90;99.90;;;;;;5075247;28;20032;-35
2023/03/16 10:59:15;;;;;;;8.13;5.32;;;6.90;99.90;;;;;;5065118;28;20040;-35
2023/03/16 11:01:47;;;;;;;8.23;5.63;;;7.00;99.90;;;;;;5051118;28;20044;-35
2023/03/16 11:04:17;;;;;;;7.10;5.22;;;7.00;99.90;;;;;;5071049;28;20047;-35
2023/03/16 11:06:55;;;;;;;6.85;4.90;;;7.10;99.90;;;;;;5061463;28;20037;-35
2023/03/16 11:09:35;;;;;;;7.57;5.05;;;7.10;99.90;;;;;;5062804;28;20037;-35
2023/03/16 11:12:29;;;;;;;8.88;4.35;;;7.10;99.90;;;;;;5070310;28;20036;-34
2023/03/16 11:15:04;;;;;;;8.55;5.13;;;7.20;99.90;;;;;;5062291;28;20036;-35
2023/03/16 11:17:43;;;;;;;7.95;5.32;;;7.10;99.90;;;;;;5032154;28;20123;-35
2023/03/16 11:20:27;;;;;;;6.47;4.95;;;7.20;99.90;;;;;;5060494;28;20047;-35
2023/03/16 11:22:53;;;;;;;7.90;5.60;;;7.20;99.90;;;;;;5059831;28;20044;-34
2023/03/16 11:25:40;;;;;;;7.68;4.85;;;7.20;99.90;;;;;;5063118;28;20518;-35
2023/03/16 11:28:11;;;;;;;5.85;4.60;;;7.30;99.90;;;;;;5068837;28;20041;-35
2023/03/16 11:30:46;;;;;;;8.35;4.78;;;7.30;99.90;;;;;;5067038;28;20111;-34
2023/03/16 11:33:15;;;;;;;5.60;4.28;;;7.40;99.90;;;;;;5050348;28;20068;-35
2023/03/16 11:35:59;;;;;;;6.68;4.50;;;7.40;99.90;;;;;;5059479;28;20068;-34
2023/03/16 11:38:52;;;;;;;5.50;4.25;;;7.40;99.90;;;;;;5064195;28;20138;-35
2023/03/16 11:41:36;;;;;;;5.33;4.07;;;7.50;99.90;;;;;;5077574;28;20207;-34
2023/03/16 11:44:15;;;;;;;5.60;4.07;;;7.60;99.90;;;;;;5064640;28;20311;-34
2023/03/16 11:46:47;;;;;;;5.43;4.50;;;7.70;99.90;;;;;;5076032;28;20439;-34
2023/03/16 11:49:24;;;;;;;5.45;4.30;;;7.80;99.90;;;;;;5033709;28;20129;-35
2023/03/16 11:52:18;;;;;;;6.40;4.60;;;7.80;99.90;;;;;;5064080;28;20039;-33
2023/03/16 11:55:06;;;;;;;7.57;4.37;;;7.90;99.90;;;;;;5056401;28;20033;-35
2023/03/16 11:57:54;;;;;;;5.43;4.32;;;7.90;99.90;;;;;;5058987;28;20041;-34
2023/03/16 12:00:47;;;;;;;5.53;4.28;;;7.90;99.90;;;;;;5051632;28;20045;-35
2023/03/16 12:03:25;;;;;;;5.75;4.22;;;8.00;99.90;;;;;;5050009;28;20041;-35
2023/03/16 12:06:04;;;;;;;6.38;4.40;;;8.10;99.90;;;;;;5064410;28;20040;-34
2023/03/16 12:08:48;;;;;;;4.57;4.00;;;8.30;99.90;;;;;;5060885;28;20093;-35
2023/03/16 12:11:27;;;;;;;5.05;3.88;;;8.60;99.90;;;;;;5069942;28;20044;-35
2023/03/16 12:14:00;;;;;;;5.90;4.10;;;8.70;99.90;;;;;;5069834;28;20037;-34
2023/03/16 12:16:32;;;;;;;7.25;4.30;;;8.90;99.90;;;;;;5070401;28;20036;-35
2023/03/16 12:19:05;;;;;;;5.60;3.83;;;8.90;99.90;;;;;;5064499;28;20128;-35
2023/03/16 12:21:38;;;;;;;6.70;3.92;;;9.10;99.90;;;;;;5050337;28;20394;-35
2023/03/16 12:24:27;;;;;;;5.10;3.38;;;9.40;99.90;;;;;;5049962;28;20048;-35
2023/03/16 12:26:53;;;;;;;4.97;3.85;;;9.70;99.90;;;;;;5074766;28;20040;-35
2023/03/16 12:29:48;;;;;;;6.95;3.85;;;9.80;99.90;;;;;;5069943;28;20087;-35
2023/03/16 12:32:28;;;;;;;4.55;3.60;;;10.00;99.90;;;;;;5045373;28;20053;-35
2023/03/16 12:35:23;;;;;;;4.25;3.63;;;10.00;99.90;;;;;;5064306;28;20439;-35
2023/03/16 12:38:02;;;;;;;5.43;3.63;;;9.90;99.90;;;;;;5060343;28;20040;-35
2023/03/16 12:40:34;;;;;;;5.18;3.70;;;9.90;99.90;;;;;;5070177;28;20486;-34
2023/03/16 12:43:22;;;;;;;5.97;3.50;;;9.80;99.90;;;;;;5070093;28;20043;-34
2023/03/16 12:46:00;;;;;;;5.93;3.80;;;9.70;99.90;;;;;;5058187;28;20182;-34
2023/03/16 12:48:51;;;;;;;4.05;3.60;;;9.70;99.90;;;;;;5073256;28;20040;-35
2023/03/16 12:51:17;;;;;;;8.27;3.72;;;9.60;99.90;;;;;;5063593;28;20114;-36
2023/03/16 12:53:54;;;;;;;6.32;3.80;;;9.50;99.90;;;;;;5060335;28;20526;-35
2023/03/16 12:56:31;;;;;;;6.38;3.72;;;9.50;99.90;;;;;;5062421;28;20481;-35
2023/03/16 12:59:04;;;;;;;4.93;3.38;;;9.50;99.90;;;;;;5073520;28;20123;-35
2023/03/16 13:01:38;;;;;;;5.95;3.83;;;9.40;99.90;;;;;;5060772;28;20051;-35
2023/03/16 13:04:18;;;;;;;4.70;3.60;;;9.40;99.90;;;;;;5053119;28;20037;-35
2023/03/16 13:07:00;;;;;;;4.68;3.83;;;9.40;99.90;;;;;;5063464;28;20152;-35
2023/03/16 13:09:30;;;;;;;4.05;3.47;;;9.30;99.90;;;;;;5068442;28;20051;-36
2023/03/16 13:11:58;;;;;;;6.50;4.10;;;9.40;99.90;;;;;;5069664;28;20208;-35